sensor_id;sensor_type;location;lat;lon;timestamp;P1;durP1;ratioP1;P2;durP2;ratioP2
73733;SDS011;62039;50.000;9.064;2023-03-03T00:00:28;8.30;;;5.77;;
73733;SDS011;62039;50.000;9.064;2023-03-03T00:02:55;6.37;;;5.53;;
73733;SDS011;62039;50.000;9.064;2023-03-03T00:05:25;7.60;;;5.47;;
73733;SDS011;62039;50.000;9.064;2023-03-03T00:07:51;7.50;;;5.40;;
73733;SDS011;62039;50.000;9.064;2023-03-03T00:10:19;6.50;;;4.90;;
73733;SDS011;62039;50.000;9.064;2023-03-03T00:12:47;6.40;;;5.50;;
73733;SDS011;62039;50.000;9.064;2023-03-03T00:15:14;7.67;;;5.27;;
73733;SDS011;62039;50.000;9.064;2023-03-03T00:17:42;6.20;;;5.23;;
73733;SDS011;62039;50.000;9.064;2023-03-03T00:20:24;7.73;;;5.70;;
73733;SDS011;62039;50.000;9.064;2023-03-03T00:22:54;5.70;;;4.83;;
73733;SDS011;62039;50.000;9.064;2023-03-03T00:25:26;8.50;;;5.20;;
73733;SDS011;62039;50.000;9.064;2023-03-03T00:27:54;7.17;;;5.60;;
73733;SDS011;62039;50.000;9.064;2023-03-03T00:30:22;6.60;;;5.53;;
73733;SDS011;62039;50.000;9.064;2023-03-03T00:32:50;6.83;;;5.27;;
73733;SDS011;62039;50.000;9.064;2023-03-03T00:35:19;6.83;;;5.40;;
73733;SDS011;62039;50.000;9.064;2023-03-03T00:37:50;7.37;;;5.30;;
73733;SDS011;62039;50.000;9.064;2023-03-03T00:40:21;6.67;;;4.97;;
73733;SDS011;62039;50.000;9.064;2023-03-03T00:42:51;6.83;;;5.43;;
73733;SDS011;62039;50.000;9.064;2023-03-03T00:48:13;5.87;;;4.93;;
73733;SDS011;62039;50.000;9.064;2023-03-03T00:50:46;6.43;;;5.27;;
73733;SDS011;62039;50.000;9.064;2023-03-03T00:53:13;7.07;;;5.47;;
73733;SDS011;62039;50.000;9.064;2023-03-03T00:55:41;7.10;;;5.43;;
73733;SDS011;62039;50.000;9.064;2023-03-03T00:58:09;7.70;;;5.13;;
73733;SDS011;62039;50.000;9.064;2023-03-03T01:00:36;7.73;;;5.40;;
73733;SDS011;62039;50.000;9.064;2023-03-03T01:03:04;6.37;;;4.80;;
73733;SDS011;62039;50.000;9.064;2023-03-03T01:05:33;6.23;;;4.80;;
73733;SDS011;62039;50.000;9.064;2023-03-03T01:08:00;6.63;;;5.03;;
73733;SDS011;62039;50.000;9.064;2023-03-03T01:10:28;8.13;;;4.73;;
73733;SDS011;62039;50.000;9.064;2023-03-03T01:12:56;6.47;;;4.90;;
73733;SDS011;62039;50.000;9.064;2023-03-03T01:15:24;6.03;;;4.67;;
73733;SDS011;62039;50.000;9.064;2023-03-03T01:17:51;7.37;;;4.73;;
73733;SDS011;62039;50.000;9.064;2023-03-03T01:20:18;5.60;;;4.60;;
73733;SDS011;62039;50.000;9.064;2023-03-03T01:22:44;5.87;;;4.57;;
73733;SDS011;62039;50.000;9.064;2023-03-03T01:25:11;5.83;;;4.43;;
73733;SDS011;62039;50.000;9.064;2023-03-03T01:27:38;6.13;;;4.73;;
73733;SDS011;62039;50.000;9.064;2023-03-03T01:30:05;6.23;;;4.80;;
73733;SDS011;62039;50.000;9.064;2023-03-03T01:32:34;5.40;;;4.90;;
73733;SDS011;62039;50.000;9.064;2023-03-03T01:35:00;6.57;;;5.10;;
73733;SDS011;62039;50.000;9.064;2023-03-03T01:37:27;6.97;;;5.10;;
73733;SDS011;62039;50.000;9.064;2023-03-03T01:39:54;7.47;;;4.77;;
73733;SDS011;62039;50.000;9.064;2023-03-03T01:42:20;7.13;;;4.80;;
73733;SDS011;62039;50.000;9.064;2023-03-03T01:44:47;6.53;;;4.80;;
73733;SDS011;62039;50.000;9.064;2023-03-03T01:47:14;5.63;;;4.23;;
73733;SDS011;62039;50.000;9.064;2023-03-03T01:49:45;5.60;;;4.17;;
73733;SDS011;62039;50.000;9.064;2023-03-03T01:52:17;7.43;;;4.87;;
73733;SDS011;62039;50.000;9.064;2023-03-03T01:54:50;6.00;;;4.37;;
73733;SDS011;62039;50.000;9.064;2023-03-03T01:57:21;6.83;;;4.47;;
73733;SDS011;62039;50.000;9.064;2023-03-03T01:59:50;6.67;;;4.70;;
73733;SDS011;62039;50.000;9.064;2023-03-03T02:02:18;6.47;;;5.07;;
73733;SDS011;62039;50.000;9.064;2023-03-03T02:04:46;7.13;;;5.03;;
73733;SDS011;62039;50.000;9.064;2023-03-03T02:07:15;7.90;;;5.20;;
73733;SDS011;62039;50.000;9.064;2023-03-03T02:09:45;7.53;;;5.30;;
73733;SDS011;62039;50.000;9.064;2023-03-03T02:12:17;6.07;;;4.77;;
73733;SDS011;62039;50.000;9.064;2023-03-03T02:14:45;6.90;;;5.00;;
73733;SDS011;62039;50.000;9.064;2023-03-03T02:17:11;7.03;;;5.40;;
73733;SDS011;62039;50.000;9.064;2023-03-03T02:19:40;6.37;;;5.30;;
73733;SDS011;62039;50.000;9.064;2023-03-03T02:22:13;7.03;;;5.57;;
73733;SDS011;62039;50.000;9.064;2023-03-03T02:24:42;7.63;;;5.17;;
73733;SDS011;62039;50.000;9.064;2023-03-03T02:27:14;8.00;;;5.07;;
73733;SDS011;62039;50.000;9.064;2023-03-03T02:29:40;6.30;;;4.90;;
73733;SDS011;62039;50.000;9.064;2023-03-03T02:32:07;7.80;;;5.30;;
73733;SDS011;62039;50.000;9.064;2023-03-03T02:34:42;5.63;;;4.83;;
73733;SDS011;62039;50.000;9.064;2023-03-03T02:37:11;7.87;;;5.23;;
73733;SDS011;62039;50.000;9.064;2023-03-03T02:39:37;8.03;;;5.13;;
73733;SDS011;62039;50.000;9.064;2023-03-03T02:42:05;6.80;;;5.00;;
73733;SDS011;62039;50.000;9.064;2023-03-03T02:44:38;7.17;;;4.87;;
73733;SDS011;62039;50.000;9.064;2023-03-03T02:47:05;8.30;;;5.57;;
73733;SDS011;62039;50.000;9.064;2023-03-03T02:49:32;6.13;;;4.87;;
73733;SDS011;62039;50.000;9.064;2023-03-03T02:52:00;6.83;;;4.97;;
73733;SDS011;62039;50.000;9.064;2023-03-03T02:54:29;6.57;;;5.10;;
73733;SDS011;62039;50.000;9.064;2023-03-03T02:56:56;7.10;;;5.37;;
73733;SDS011;62039;50.000;9.064;2023-03-03T02:59:22;6.03;;;4.87;;
73733;SDS011;62039;50.000;9.064;2023-03-03T03:01:50;6.10;;;4.40;;
73733;SDS011;62039;50.000;9.064;2023-03-03T03:04:17;6.30;;;4.67;;
73733;SDS011;62039;50.000;9.064;2023-03-03T03:06:46;5.97;;;4.60;;
73733;SDS011;62039;50.000;9.064;2023-03-03T03:09:13;6.07;;;5.07;;
73733;SDS011;62039;50.000;9.064;2023-03-03T03:11:41;7.47;;;5.30;;
73733;SDS011;62039;50.000;9.064;2023-03-03T03:14:09;7.50;;;5.33;;
73733;SDS011;62039;50.000;9.064;2023-03-03T03:16:36;7.27;;;4.90;;
73733;SDS011;62039;50.000;9.064;2023-03-03T03:19:04;6.70;;;4.97;;
73733;SDS011;62039;50.000;9.064;2023-03-03T03:21:32;7.63;;;5.73;;
73733;SDS011;62039;50.000;9.064;2023-03-03T03:23:58;7.77;;;5.80;;
73733;SDS011;62039;50.000;9.064;2023-03-03T03:26:25;8.67;;;6.30;;
73733;SDS011;62039;50.000;9.064;2023-03-03T03:28:52;8.50;;;5.63;;
73733;SDS011;62039;50.000;9.064;2023-03-03T03:31:19;9.60;;;5.93;;
73733;SDS011;62039;50.000;9.064;2023-03-03T03:33:46;8.37;;;5.57;;
73733;SDS011;62039;50.000;9.064;2023-03-03T03:36:14;8.43;;;5.43;;
73733;SDS011;62039;50.000;9.064;2023-03-03T03:38:42;8.37;;;5.53;;
73733;SDS011;62039;50.000;9.064;2023-03-03T03:41:09;8.80;;;5.37;;
73733;SDS011;62039;50.000;9.064;2023-03-03T03:43:37;6.47;;;4.77;;
73733;SDS011;62039;50.000;9.064;2023-03-03T03:46:04;6.50;;;4.60;;
73733;SDS011;62039;50.000;9.064;2023-03-03T03:48:30;6.77;;;5.33;;
73733;SDS011;62039;50.000;9.064;2023-03-03T03:50:57;6.13;;;4.63;;
73733;SDS011;62039;50.000;9.064;2023-03-03T03:53:25;7.90;;;4.97;;
73733;SDS011;62039;50.000;9.064;2023-03-03T03:55:52;10.47;;;6.43;;
73733;SDS011;62039;50.000;9.064;2023-03-03T03:58:18;9.23;;;6.77;;
73733;SDS011;62039;50.000;9.064;2023-03-03T04:00:45;10.27;;;6.53;;
73733;SDS011;62039;50.000;9.064;2023-03-03T04:03:12;9.17;;;6.33;;
73733;SDS011;62039;50.000;9.064;2023-03-03T04:05:39;8.70;;;6.00;;
73733;SDS011;62039;50.000;9.064;2023-03-03T04:08:06;9.33;;;6.17;;
73733;SDS011;62039;50.000;9.064;2023-03-03T04:10:34;8.73;;;6.13;;
73733;SDS011;62039;50.000;9.064;2023-03-03T04:13:00;8.20;;;5.80;;
73733;SDS011;62039;50.000;9.064;2023-03-03T04:15:27;9.30;;;6.20;;
73733;SDS011;62039;50.000;9.064;2023-03-03T04:17:53;8.17;;;5.97;;
73733;SDS011;62039;50.000;9.064;2023-03-03T04:20:20;9.87;;;6.00;;
73733;SDS011;62039;50.000;9.064;2023-03-03T04:22:46;7.97;;;6.00;;
73733;SDS011;62039;50.000;9.064;2023-03-03T04:25:13;8.63;;;6.10;;
73733;SDS011;62039;50.000;9.064;2023-03-03T04:27:42;7.53;;;5.63;;
73733;SDS011;62039;50.000;9.064;2023-03-03T04:30:10;7.70;;;5.93;;
73733;SDS011;62039;50.000;9.064;2023-03-03T04:32:38;7.70;;;5.83;;
73733;SDS011;62039;50.000;9.064;2023-03-03T04:35:04;7.63;;;5.50;;
73733;SDS011;62039;50.000;9.064;2023-03-03T04:37:34;9.50;;;6.33;;
73733;SDS011;62039;50.000;9.064;2023-03-03T04:40:01;7.37;;;6.00;;
73733;SDS011;62039;50.000;9.064;2023-03-03T04:42:28;9.83;;;6.30;;
73733;SDS011;62039;50.000;9.064;2023-03-03T04:44:55;10.27;;;6.30;;
73733;SDS011;62039;50.000;9.064;2023-03-03T04:47:22;7.47;;;6.23;;
73733;SDS011;62039;50.000;9.064;2023-03-03T04:49:49;9.30;;;6.63;;
73733;SDS011;62039;50.000;9.064;2023-03-03T04:52:15;8.90;;;6.97;;
73733;SDS011;62039;50.000;9.064;2023-03-03T04:54:42;10.87;;;8.03;;
73733;SDS011;62039;50.000;9.064;2023-03-03T04:57:08;11.73;;;6.83;;
73733;SDS011;62039;50.000;9.064;2023-03-03T04:59:35;8.83;;;6.90;;
73733;SDS011;62039;50.000;9.064;2023-03-03T05:02:03;9.40;;;6.97;;
73733;SDS011;62039;50.000;9.064;2023-03-03T05:04:30;11.07;;;7.43;;
73733;SDS011;62039;50.000;9.064;2023-03-03T05:06:57;10.17;;;6.90;;
73733;SDS011;62039;50.000;9.064;2023-03-03T05:09:23;10.10;;;7.80;;
73733;SDS011;62039;50.000;9.064;2023-03-03T05:11:50;12.27;;;7.70;;
73733;SDS011;62039;50.000;9.064;2023-03-03T05:14:16;12.03;;;7.23;;
73733;SDS011;62039;50.000;9.064;2023-03-03T05:16:43;10.97;;;7.13;;
73733;SDS011;62039;50.000;9.064;2023-03-03T05:19:11;9.40;;;7.07;;
73733;SDS011;62039;50.000;9.064;2023-03-03T05:21:37;12.10;;;7.30;;
73733;SDS011;62039;50.000;9.064;2023-03-03T05:24:04;9.97;;;7.50;;
73733;SDS011;62039;50.000;9.064;2023-03-03T05:26:31;11.47;;;7.40;;
73733;SDS011;62039;50.000;9.064;2023-03-03T05:28:57;11.67;;;7.77;;
73733;SDS011;62039;50.000;9.064;2023-03-03T05:31:24;9.63;;;7.30;;
73733;SDS011;62039;50.000;9.064;2023-03-03T05:33:50;11.07;;;7.37;;
73733;SDS011;62039;50.000;9.064;2023-03-03T05:36:18;11.57;;;7.13;;
73733;SDS011;62039;50.000;9.064;2023-03-03T05:38:45;11.23;;;7.63;;
73733;SDS011;62039;50.000;9.064;2023-03-03T05:41:11;11.73;;;7.40;;
73733;SDS011;62039;50.000;9.064;2023-03-03T05:43:38;10.80;;;7.53;;
73733;SDS011;62039;50.000;9.064;2023-03-03T05:46:05;9.63;;;7.30;;
73733;SDS011;62039;50.000;9.064;2023-03-03T05:48:31;11.13;;;7.73;;
73733;SDS011;62039;50.000;9.064;2023-03-03T05:50:58;10.03;;;7.30;;
73733;SDS011;62039;50.000;9.064;2023-03-03T05:53:26;11.43;;;8.20;;
73733;SDS011;62039;50.000;9.064;2023-03-03T05:55:53;10.17;;;7.87;;
73733;SDS011;62039;50.000;9.064;2023-03-03T05:58:20;12.07;;;8.63;;
73733;SDS011;62039;50.000;9.064;2023-03-03T06:00:46;11.33;;;8.67;;
73733;SDS011;62039;50.000;9.064;2023-03-03T06:03:13;10.30;;;7.83;;
73733;SDS011;62039;50.000;9.064;2023-03-03T06:05:40;11.23;;;7.80;;
73733;SDS011;62039;50.000;9.064;2023-03-03T06:08:06;12.93;;;8.33;;
73733;SDS011;62039;50.000;9.064;2023-03-03T06:10:34;13.53;;;8.60;;
73733;SDS011;62039;50.000;9.064;2023-03-03T06:13:01;11.37;;;8.40;;
73733;SDS011;62039;50.000;9.064;2023-03-03T06:15:27;11.07;;;8.00;;
73733;SDS011;62039;50.000;9.064;2023-03-03T06:17:54;12.63;;;8.60;;
73733;SDS011;62039;50.000;9.064;2023-03-03T06:20:20;11.77;;;8.40;;
73733;SDS011;62039;50.000;9.064;2023-03-03T06:22:47;11.97;;;7.90;;
73733;SDS011;62039;50.000;9.064;2023-03-03T06:25:13;12.83;;;7.43;;
73733;SDS011;62039;50.000;9.064;2023-03-03T06:27:41;14.87;;;8.23;;
73733;SDS011;62039;50.000;9.064;2023-03-03T06:30:08;12.67;;;7.50;;
73733;SDS011;62039;50.000;9.064;2023-03-03T06:32:36;12.00;;;7.57;;
73733;SDS011;62039;50.000;9.064;2023-03-03T06:35:02;11.47;;;8.33;;
73733;SDS011;62039;50.000;9.064;2023-03-03T06:37:29;12.50;;;8.50;;
73733;SDS011;62039;50.000;9.064;2023-03-03T06:39:56;11.73;;;9.10;;
73733;SDS011;62039;50.000;9.064;2023-03-03T06:42:22;13.53;;;9.97;;
73733;SDS011;62039;50.000;9.064;2023-03-03T06:44:50;13.60;;;9.27;;
73733;SDS011;62039;50.000;9.064;2023-03-03T06:47:17;17.27;;;8.63;;
73733;SDS011;62039;50.000;9.064;2023-03-03T06:49:43;13.13;;;7.77;;
73733;SDS011;62039;50.000;9.064;2023-03-03T06:52:11;14.83;;;7.87;;
73733;SDS011;62039;50.000;9.064;2023-03-03T06:54:39;10.60;;;7.83;;
73733;SDS011;62039;50.000;9.064;2023-03-03T06:57:07;12.23;;;8.47;;
73733;SDS011;62039;50.000;9.064;2023-03-03T06:59:42;10.70;;;8.07;;
73733;SDS011;62039;50.000;9.064;2023-03-03T07:02:12;15.43;;;8.80;;
73733;SDS011;62039;50.000;9.064;2023-03-03T07:04:42;17.13;;;9.80;;
73733;SDS011;62039;50.000;9.064;2023-03-03T07:07:12;13.80;;;10.20;;
73733;SDS011;62039;50.000;9.064;2023-03-03T07:09:42;15.93;;;10.07;;
73733;SDS011;62039;50.000;9.064;2023-03-03T07:12:11;15.90;;;10.20;;
73733;SDS011;62039;50.000;9.064;2023-03-03T07:14:41;12.67;;;9.97;;
73733;SDS011;62039;50.000;9.064;2023-03-03T07:17:09;14.23;;;10.67;;
73733;SDS011;62039;50.000;9.064;2023-03-03T07:19:42;14.50;;;10.47;;
73733;SDS011;62039;50.000;9.064;2023-03-03T07:22:11;15.77;;;11.70;;
73733;SDS011;62039;50.000;9.064;2023-03-03T07:24:40;15.17;;;11.70;;
73733;SDS011;62039;50.000;9.064;2023-03-03T07:27:10;16.13;;;11.17;;
73733;SDS011;62039;50.000;9.064;2023-03-03T07:29:39;14.43;;;10.40;;
73733;SDS011;62039;50.000;9.064;2023-03-03T07:32:12;14.63;;;11.07;;
73733;SDS011;62039;50.000;9.064;2023-03-03T07:34:50;14.93;;;11.03;;
73733;SDS011;62039;50.000;9.064;2023-03-03T07:37:21;15.47;;;11.23;;
73733;SDS011;62039;50.000;9.064;2023-03-03T07:39:54;12.47;;;9.87;;
73733;SDS011;62039;50.000;9.064;2023-03-03T07:42:23;15.47;;;11.20;;
73733;SDS011;62039;50.000;9.064;2023-03-03T07:44:51;13.80;;;9.90;;
73733;SDS011;62039;50.000;9.064;2023-03-03T07:47:19;12.93;;;9.17;;
73733;SDS011;62039;50.000;9.064;2023-03-03T07:49:50;12.07;;;9.47;;
73733;SDS011;62039;50.000;9.064;2023-03-03T07:52:20;12.40;;;9.47;;
73733;SDS011;62039;50.000;9.064;2023-03-03T07:54:50;12.83;;;10.20;;
73733;SDS011;62039;50.000;9.064;2023-03-03T07:57:18;13.33;;;9.63;;
73733;SDS011;62039;50.000;9.064;2023-03-03T07:59:48;14.03;;;10.70;;
73733;SDS011;62039;50.000;9.064;2023-03-03T08:02:26;17.27;;;11.90;;
73733;SDS011;62039;50.000;9.064;2023-03-03T08:04:59;18.13;;;11.90;;
73733;SDS011;62039;50.000;9.064;2023-03-03T08:07:30;15.17;;;11.77;;
73733;SDS011;62039;50.000;9.064;2023-03-03T08:09:57;16.03;;;12.03;;
73733;SDS011;62039;50.000;9.064;2023-03-03T08:12:29;16.33;;;12.40;;
73733;SDS011;62039;50.000;9.064;2023-03-03T08:15:10;16.33;;;11.47;;
73733;SDS011;62039;50.000;9.064;2023-03-03T08:17:42;15.97;;;10.90;;
73733;SDS011;62039;50.000;9.064;2023-03-03T08:23:15;18.60;;;11.97;;
73733;SDS011;62039;50.000;9.064;2023-03-03T08:25:43;15.47;;;12.23;;
73733;SDS011;62039;50.000;9.064;2023-03-03T08:28:10;18.53;;;13.83;;
73733;SDS011;62039;50.000;9.064;2023-03-03T08:30:36;14.67;;;11.40;;
73733;SDS011;62039;50.000;9.064;2023-03-03T08:33:05;15.23;;;11.37;;
73733;SDS011;62039;50.000;9.064;2023-03-03T08:35:31;17.73;;;12.80;;
73733;SDS011;62039;50.000;9.064;2023-03-03T08:37:58;16.33;;;12.03;;
73733;SDS011;62039;50.000;9.064;2023-03-03T08:40:25;18.43;;;13.20;;
73733;SDS011;62039;50.000;9.064;2023-03-03T08:42:51;17.10;;;12.13;;
73733;SDS011;62039;50.000;9.064;2023-03-03T08:45:18;18.63;;;13.83;;
73733;SDS011;62039;50.000;9.064;2023-03-03T08:47:45;18.03;;;12.50;;
73733;SDS011;62039;50.000;9.064;2023-03-03T08:50:12;16.07;;;12.00;;
73733;SDS011;62039;50.000;9.064;2023-03-03T08:52:39;18.90;;;13.03;;
73733;SDS011;62039;50.000;9.064;2023-03-03T08:55:06;19.23;;;14.07;;
73733;SDS011;62039;50.000;9.064;2023-03-03T08:57:34;17.37;;;12.60;;
73733;SDS011;62039;50.000;9.064;2023-03-03T09:00:00;16.33;;;12.10;;
73733;SDS011;62039;50.000;9.064;2023-03-03T09:02:27;17.07;;;12.73;;
73733;SDS011;62039;50.000;9.064;2023-03-03T09:04:53;17.33;;;12.73;;
73733;SDS011;62039;50.000;9.064;2023-03-03T09:07:21;18.50;;;13.43;;
73733;SDS011;62039;50.000;9.064;2023-03-03T09:09:48;19.47;;;13.70;;
73733;SDS011;62039;50.000;9.064;2023-03-03T09:12:15;21.57;;;15.77;;
73733;SDS011;62039;50.000;9.064;2023-03-03T09:14:43;19.43;;;13.93;;
73733;SDS011;62039;50.000;9.064;2023-03-03T09:20:00;18.70;;;12.90;;
73733;SDS011;62039;50.000;9.064;2023-03-03T09:22:37;19.80;;;14.40;;
73733;SDS011;62039;50.000;9.064;2023-03-03T09:25:05;19.23;;;13.67;;
73733;SDS011;62039;50.000;9.064;2023-03-03T09:27:44;20.13;;;14.43;;
73733;SDS011;62039;50.000;9.064;2023-03-03T09:30:13;17.27;;;13.53;;
73733;SDS011;62039;50.000;9.064;2023-03-03T09:33:00;17.50;;;12.90;;
73733;SDS011;62039;50.000;9.064;2023-03-03T09:35:41;18.40;;;13.50;;
73733;SDS011;62039;50.000;9.064;2023-03-03T09:38:14;16.00;;;12.90;;
73733;SDS011;62039;50.000;9.064;2023-03-03T09:40:54;19.60;;;15.17;;
73733;SDS011;62039;50.000;9.064;2023-03-03T09:43:33;19.73;;;14.83;;
73733;SDS011;62039;50.000;9.064;2023-03-03T09:46:07;20.47;;;14.90;;
73733;SDS011;62039;50.000;9.064;2023-03-03T09:48:43;19.87;;;14.33;;
73733;SDS011;62039;50.000;9.064;2023-03-03T09:51:32;21.27;;;15.97;;
73733;SDS011;62039;50.000;9.064;2023-03-03T09:54:14;20.77;;;15.40;;
73733;SDS011;62039;50.000;9.064;2023-03-03T09:56:49;19.47;;;13.90;;
73733;SDS011;62039;50.000;9.064;2023-03-03T09:59:26;20.07;;;15.33;;
73733;SDS011;62039;50.000;9.064;2023-03-03T10:02:18;17.40;;;13.33;;
73733;SDS011;62039;50.000;9.064;2023-03-03T10:05:04;19.00;;;13.70;;
73733;SDS011;62039;50.000;9.064;2023-03-03T10:07:48;18.37;;;13.57;;
73733;SDS011;62039;50.000;9.064;2023-03-03T10:10:38;18.53;;;13.23;;
73733;SDS011;62039;50.000;9.064;2023-03-03T10:13:15;19.43;;;14.43;;
73733;SDS011;62039;50.000;9.064;2023-03-03T10:15:51;18.47;;;14.37;;
73733;SDS011;62039;50.000;9.064;2023-03-03T10:18:33;18.60;;;13.30;;
73733;SDS011;62039;50.000;9.064;2023-03-03T10:21:08;16.90;;;12.87;;
73733;SDS011;62039;50.000;9.064;2023-03-03T10:23:43;19.80;;;14.83;;
73733;SDS011;62039;50.000;9.064;2023-03-03T10:26:20;19.60;;;13.97;;
73733;SDS011;62039;50.000;9.064;2023-03-03T10:29:13;18.47;;;13.80;;
73733;SDS011;62039;50.000;9.064;2023-03-03T10:31:54;17.67;;;13.87;;
73733;SDS011;62039;50.000;9.064;2023-03-03T10:34:32;18.23;;;12.90;;
73733;SDS011;62039;50.000;9.064;2023-03-03T10:37:15;17.50;;;13.47;;
73733;SDS011;62039;50.000;9.064;2023-03-03T10:39:54;18.30;;;13.90;;
73733;SDS011;62039;50.000;9.064;2023-03-03T10:42:37;17.13;;;12.60;;
73733;SDS011;62039;50.000;9.064;2023-03-03T10:45:21;17.93;;;13.00;;
73733;SDS011;62039;50.000;9.064;2023-03-03T10:48:26;16.87;;;13.23;;
73733;SDS011;62039;50.000;9.064;2023-03-03T10:51:07;16.60;;;13.17;;
73733;SDS011;62039;50.000;9.064;2023-03-03T10:53:45;16.03;;;12.40;;
73733;SDS011;62039;50.000;9.064;2023-03-03T10:56:24;18.13;;;14.10;;
73733;SDS011;62039;50.000;9.064;2023-03-03T10:59:27;16.77;;;13.43;;
73733;SDS011;62039;50.000;9.064;2023-03-03T11:02:05;17.07;;;12.23;;
73733;SDS011;62039;50.000;9.064;2023-03-03T11:04:58;15.47;;;11.87;;
73733;SDS011;62039;50.000;9.064;2023-03-03T11:07:37;18.03;;;13.17;;
73733;SDS011;62039;50.000;9.064;2023-03-03T11:10:13;18.13;;;12.27;;
73733;SDS011;62039;50.000;9.064;2023-03-03T11:12:51;16.43;;;12.37;;
73733;SDS011;62039;50.000;9.064;2023-03-03T11:15:41;15.13;;;11.57;;
73733;SDS011;62039;50.000;9.064;2023-03-03T11:18:20;14.60;;;11.50;;
73733;SDS011;62039;50.000;9.064;2023-03-03T11:20:55;15.17;;;12.13;;
73733;SDS011;62039;50.000;9.064;2023-03-03T11:23:34;17.20;;;12.00;;
73733;SDS011;62039;50.000;9.064;2023-03-03T11:26:23;13.20;;;10.83;;
73733;SDS011;62039;50.000;9.064;2023-03-03T11:29:07;14.77;;;11.33;;
73733;SDS011;62039;50.000;9.064;2023-03-03T11:31:54;15.43;;;12.33;;
73733;SDS011;62039;50.000;9.064;2023-03-03T11:34:28;14.87;;;11.20;;
73733;SDS011;62039;50.000;9.064;2023-03-03T11:37:07;16.07;;;11.43;;
73733;SDS011;62039;50.000;9.064;2023-03-03T11:39:36;13.20;;;11.00;;
73733;SDS011;62039;50.000;9.064;2023-03-03T11:42:07;13.30;;;10.47;;
73733;SDS011;62039;50.000;9.064;2023-03-03T11:44:39;13.93;;;10.67;;
73733;SDS011;62039;50.000;9.064;2023-03-03T11:47:13;14.40;;;10.97;;
73733;SDS011;62039;50.000;9.064;2023-03-03T11:49:46;12.20;;;10.27;;
73733;SDS011;62039;50.000;9.064;2023-03-03T11:52:19;12.50;;;10.77;;
73733;SDS011;62039;50.000;9.064;2023-03-03T11:54:51;14.40;;;11.63;;
73733;SDS011;62039;50.000;9.064;2023-03-03T11:57:22;15.27;;;11.60;;
73733;SDS011;62039;50.000;9.064;2023-03-03T12:02:56;14.07;;;11.47;;
73733;SDS011;62039;50.000;9.064;2023-03-03T12:05:31;14.17;;;11.47;;
73733;SDS011;62039;50.000;9.064;2023-03-03T12:08:07;12.43;;;10.90;;
73733;SDS011;62039;50.000;9.064;2023-03-03T12:10:49;15.50;;;11.10;;
73733;SDS011;62039;50.000;9.064;2023-03-03T12:13:22;14.67;;;11.60;;
73733;SDS011;62039;50.000;9.064;2023-03-03T12:15:57;12.00;;;10.70;;
73733;SDS011;62039;50.000;9.064;2023-03-03T12:21:31;13.27;;;11.17;;
73733;SDS011;62039;50.000;9.064;2023-03-03T12:24:16;12.30;;;10.27;;
73733;SDS011;62039;50.000;9.064;2023-03-03T12:26:53;12.03;;;10.10;;
73733;SDS011;62039;50.000;9.064;2023-03-03T12:29:31;13.07;;;11.23;;
73733;SDS011;62039;50.000;9.064;2023-03-03T12:32:09;13.30;;;10.33;;
73733;SDS011;62039;50.000;9.064;2023-03-03T12:34:50;13.10;;;10.07;;
73733;SDS011;62039;50.000;9.064;2023-03-03T12:37:22;11.37;;;10.13;;
73733;SDS011;62039;50.000;9.064;2023-03-03T12:40:02;14.23;;;10.23;;
73733;SDS011;62039;50.000;9.064;2023-03-03T12:42:37;13.13;;;10.43;;
73733;SDS011;62039;50.000;9.064;2023-03-03T12:45:23;11.70;;;10.20;;
73733;SDS011;62039;50.000;9.064;2023-03-03T12:48:00;12.57;;;10.23;;
73733;SDS011;62039;50.000;9.064;2023-03-03T12:50:38;12.63;;;9.93;;
73733;SDS011;62039;50.000;9.064;2023-03-03T12:53:17;13.37;;;10.30;;
73733;SDS011;62039;50.000;9.064;2023-03-03T12:55:51;12.87;;;10.50;;
73733;SDS011;62039;50.000;9.064;2023-03-03T12:58:24;12.10;;;9.77;;
73733;SDS011;62039;50.000;9.064;2023-03-03T13:01:04;11.17;;;9.97;;
73733;SDS011;62039;50.000;9.064;2023-03-03T13:03:40;11.83;;;9.63;;
73733;SDS011;62039;50.000;9.064;2023-03-03T13:06:25;11.90;;;10.50;;
73733;SDS011;62039;50.000;9.064;2023-03-03T13:08:57;11.23;;;9.60;;
73733;SDS011;62039;50.000;9.064;2023-03-03T13:11:35;10.63;;;9.37;;
73733;SDS011;62039;50.000;9.064;2023-03-03T13:14:12;12.63;;;10.23;;
73733;SDS011;62039;50.000;9.064;2023-03-03T13:16:47;11.20;;;9.30;;
73733;SDS011;62039;50.000;9.064;2023-03-03T13:19:19;10.67;;;9.57;;
73733;SDS011;62039;50.000;9.064;2023-03-03T13:21:53;11.67;;;9.93;;
73733;SDS011;62039;50.000;9.064;2023-03-03T13:24:22;11.63;;;10.00;;
73733;SDS011;62039;50.000;9.064;2023-03-03T13:26:53;13.77;;;9.87;;
73733;SDS011;62039;50.000;9.064;2023-03-03T13:29:22;10.13;;;9.07;;
73733;SDS011;62039;50.000;9.064;2023-03-03T13:31:53;11.47;;;9.63;;
73733;SDS011;62039;50.000;9.064;2023-03-03T13:34:24;10.47;;;9.03;;
73733;SDS011;62039;50.000;9.064;2023-03-03T13:37:02;10.77;;;9.43;;
73733;SDS011;62039;50.000;9.064;2023-03-03T13:39:33;11.30;;;10.00;;
73733;SDS011;62039;50.000;9.064;2023-03-03T13:42:07;10.93;;;9.83;;
73733;SDS011;62039;50.000;9.064;2023-03-03T13:44:43;11.73;;;9.57;;
73733;SDS011;62039;50.000;9.064;2023-03-03T13:47:13;10.93;;;9.30;;
73733;SDS011;62039;50.000;9.064;2023-03-03T13:49:51;10.70;;;9.60;;
73733;SDS011;62039;50.000;9.064;2023-03-03T13:52:27;12.67;;;10.47;;
73733;SDS011;62039;50.000;9.064;2023-03-03T13:55:02;10.17;;;9.07;;
73733;SDS011;62039;50.000;9.064;2023-03-03T13:57:43;10.63;;;9.33;;
73733;SDS011;62039;50.000;9.064;2023-03-03T14:00:19;11.60;;;9.97;;
73733;SDS011;62039;50.000;9.064;2023-03-03T14:03:02;10.73;;;9.07;;
73733;SDS011;62039;50.000;9.064;2023-03-03T14:05:37;9.50;;;8.40;;
73733;SDS011;62039;50.000;9.064;2023-03-03T14:08:08;10.33;;;8.37;;
73733;SDS011;62039;50.000;9.064;2023-03-03T14:10:42;9.83;;;8.50;;
73733;SDS011;62039;50.000;9.064;2023-03-03T14:13:15;10.23;;;8.50;;
73733;SDS011;62039;50.000;9.064;2023-03-03T14:15:51;11.10;;;8.60;;
73733;SDS011;62039;50.000;9.064;2023-03-03T14:18:25;10.03;;;8.87;;
73733;SDS011;62039;50.000;9.064;2023-03-03T14:20:55;9.30;;;8.23;;
73733;SDS011;62039;50.000;9.064;2023-03-03T14:23:26;9.40;;;8.20;;
73733;SDS011;62039;50.000;9.064;2023-03-03T14:25:58;9.10;;;7.80;;
73733;SDS011;62039;50.000;9.064;2023-03-03T14:28:36;9.60;;;8.00;;
73733;SDS011;62039;50.000;9.064;2023-03-03T14:31:09;9.93;;;8.10;;
73733;SDS011;62039;50.000;9.064;2023-03-03T14:33:41;9.10;;;8.03;;
73733;SDS011;62039;50.000;9.064;2023-03-03T14:36:11;9.87;;;8.47;;
73733;SDS011;62039;50.000;9.064;2023-03-03T14:38:42;9.13;;;8.03;;
73733;SDS011;62039;50.000;9.064;2023-03-03T14:41:14;8.33;;;7.47;;
73733;SDS011;62039;50.000;9.064;2023-03-03T14:43:44;8.83;;;7.17;;
73733;SDS011;62039;50.000;9.064;2023-03-03T14:46:34;8.27;;;7.37;;
73733;SDS011;62039;50.000;9.064;2023-03-03T14:49:03;10.13;;;7.80;;
73733;SDS011;62039;50.000;9.064;2023-03-03T14:51:33;8.53;;;7.23;;
73733;SDS011;62039;50.000;9.064;2023-03-03T14:54:10;8.73;;;7.57;;
73733;SDS011;62039;50.000;9.064;2023-03-03T14:57:01;7.50;;;6.53;;
73733;SDS011;62039;50.000;9.064;2023-03-03T14:59:32;9.03;;;7.40;;
73733;SDS011;62039;50.000;9.064;2023-03-03T15:05:20;8.67;;;7.23;;
73733;SDS011;62039;50.000;9.064;2023-03-03T15:07:50;8.67;;;6.83;;
73733;SDS011;62039;50.000;9.064;2023-03-03T15:10:29;8.90;;;7.17;;
73733;SDS011;62039;50.000;9.064;2023-03-03T15:13:01;9.13;;;7.13;;
73733;SDS011;62039;50.000;9.064;2023-03-03T15:15:50;9.27;;;7.33;;
73733;SDS011;62039;50.000;9.064;2023-03-03T15:18:18;9.67;;;6.60;;